createdAt,value
2018-05-10T04:04:48.236Z,99.4
2018-05-10T04:05:08.382Z,99.9
2018-05-10T04:05:28.537Z,99.4
2018-05-10T04:05:48.718Z,99.6
2018-05-10T04:06:09.231Z,99.4
2018-05-10T04:06:29.246Z,99.4
2018-05-10T04:06:49.437Z,99.6
2018-05-10T04:07:09.647Z,99.4
2018-05-10T04:07:29.795Z,99.2
2018-05-10T04:07:49.954Z,98.9
2018-05-10T04:08:10.116Z,99.2
2018-05-10T04:08:30.309Z,99.4
2018-05-10T04:08:50.482Z,99.2
2018-05-10T04:09:10.666Z,99.1
2018-05-10T04:09:30.870Z,99.4
2018-05-10T04:09:51.051Z,99.4
2018-05-10T04:18:00.735Z,100
2018-05-10T04:18:20.915Z,100
2018-05-10T04:18:41.100Z,100
2018-05-10T04:19:01.284Z,99.4
2018-05-10T04:19:21.443Z,99.5
2018-05-10T04:22:27.934Z,98.9
2018-05-10T04:22:48.194Z,99
2018-05-10T04:25:33.732Z,99
2018-05-10T04:25:53.911Z,99
2018-05-10T04:26:14.086Z,98.6
2018-05-10T04:26:34.255Z,98.7
2018-05-10T04:30:22.997Z,98.4
2018-05-10T04:30:43.177Z,98.7
2018-05-10T04:33:04.307Z,99.1
2018-05-10T04:33:24.476Z,99.4
2018-05-10T04:35:07.864Z,98.8
2018-05-10T04:35:28.009Z,99
2018-05-10T04:37:36.483Z,98.9
2018-05-10T04:37:56.646Z,99.3
2018-05-10T04:38:16.806Z,99.4
2018-05-10T04:40:48.505Z,98.6
2018-05-10T04:41:08.664Z,98.3
2018-05-10T04:41:28.848Z,98.5
2018-05-10T04:41:49.021Z,98.1
2018-05-10T04:44:12.741Z,98.4
2018-05-10T04:44:32.926Z,98.4
2018-05-10T04:46:10.495Z,98.2
2018-05-10T04:46:30.662Z,98.5
2018-05-10T04:48:32.859Z,98.3
2018-05-10T04:48:53.037Z,98.1
2018-05-10T04:51:14.049Z,98.4
2018-05-10T04:51:34.214Z,98.4
2018-05-10T04:51:54.360Z,98.4
2018-05-10T04:53:42.470Z,98.9
2018-05-10T04:54:02.645Z,98.9
2018-05-10T04:57:11.320Z,98.5
2018-05-10T04:57:31.511Z,98.8
2018-05-10T04:57:51.680Z,98.8
2018-05-10T04:58:11.861Z,98.5
2018-05-10T04:58:32.016Z,98.2
2018-05-10T04:58:52.193Z,98.1
2018-05-10T04:59:12.372Z,98.4
2018-05-10T04:59:32.527Z,97.7
2018-05-10T04:59:52.717Z,97.9
2018-05-10T05:01:35.960Z,97.7
2018-05-10T05:01:56.134Z,98.1
2018-05-10T05:02:16.288Z,98.3
2018-05-10T05:02:36.453Z,98.1
2018-05-10T05:02:56.633Z,98
2018-05-10T05:03:52.220Z,98.4
2018-05-10T05:04:12.389Z,98.1
2018-05-10T05:04:32.565Z,98.1
2018-05-10T05:04:52.771Z,97.7
2018-05-10T05:05:12.924Z,97.5
2018-05-10T05:05:33.080Z,98.4
2018-05-10T05:05:53.283Z,98
2018-05-10T05:06:13.551Z,98.1
2018-05-10T05:06:33.728Z,98.2
2018-05-10T05:06:53.882Z,98.4
2018-05-10T05:07:14.054Z,97.8
2018-05-10T05:07:34.210Z,97.7
2018-05-10T05:07:54.377Z,97.8
2018-05-10T05:08:14.591Z,97.5
2018-05-10T05:08:34.764Z,97.9
2018-05-10T05:08:54.966Z,97.4
2018-05-10T05:10:10.177Z,97.8
2018-05-10T05:10:30.339Z,97.7
2018-05-10T05:10:50.506Z,97.6
2018-05-10T05:11:10.694Z,97.7
2018-05-10T05:11:30.873Z,97.8
2018-05-10T05:11:51.091Z,97.7
2018-05-10T05:12:11.207Z,97.7
2018-05-10T05:12:31.368Z,97.5
2018-05-10T05:12:51.533Z,97.4
2018-05-10T05:13:11.718Z,98.3
2018-05-10T05:13:31.922Z,98.3
2018-05-10T05:13:52.096Z,98
2018-05-10T05:14:12.265Z,98.6
2018-05-10T05:14:32.448Z,98.3
2018-05-10T05:14:52.604Z,98.4
2018-05-10T05:15:12.746Z,98.1
2018-05-10T05:15:32.937Z,97.4
2018-05-10T05:15:53.122Z,97.7
2018-05-10T05:16:13.290Z,97.8
2018-05-10T05:16:33.476Z,97.8
2018-05-10T05:16:53.661Z,97.3
2018-05-10T05:17:13.825Z,97.5
2018-05-10T05:17:33.999Z,97.5
2018-05-10T05:17:54.157Z,97.2
2018-05-10T05:18:14.328Z,97.4
2018-05-10T05:18:34.522Z,97.3
2018-05-10T05:18:54.704Z,97.4
2018-05-10T05:19:14.860Z,97.3
2018-05-10T05:19:35.035Z,97.3
2018-05-10T05:19:55.219Z,97.5
2018-05-10T05:20:15.368Z,97.3
2018-05-10T05:20:35.521Z,97.7
2018-05-10T05:20:55.741Z,97.1
2018-05-10T05:21:15.919Z,97.1
2018-05-10T05:21:36.179Z,96.8
2018-05-10T05:21:56.246Z,96.8
2018-05-10T05:22:16.417Z,97.2
2018-05-10T05:22:36.582Z,97.3
2018-05-10T05:22:56.781Z,97.1
2018-05-10T05:23:16.949Z,97
2018-05-10T05:23:37.115Z,97.6
2018-05-10T05:23:57.294Z,97.2
2018-05-10T05:24:17.460Z,97.2
2018-05-10T05:24:37.631Z,96.8
2018-05-10T05:24:57.792Z,97.4
2018-05-10T05:25:17.962Z,97.3
2018-05-10T05:25:38.131Z,96.8
2018-05-10T05:25:58.305Z,96.7
2018-05-10T05:26:18.475Z,97
2018-05-10T05:26:38.645Z,97.2
2018-05-10T05:26:58.963Z,96.8
2018-05-10T05:27:19.054Z,97.1
2018-05-10T05:27:39.215Z,97
2018-05-10T05:27:59.387Z,96.6
2018-05-10T05:28:19.516Z,97
2018-05-10T05:28:39.689Z,96.9
2018-05-10T05:28:59.827Z,97.2
2018-05-10T05:29:20.013Z,97.1
2018-05-10T05:29:40.182Z,97.1
2018-05-10T05:30:00.366Z,97.2
2018-05-10T05:30:20.545Z,97.1
2018-05-10T05:30:40.732Z,97.1
2018-05-10T05:31:00.935Z,97.6
2018-05-10T05:31:21.091Z,97.6
2018-05-10T05:31:41.261Z,97.3
2018-05-10T05:32:01.444Z,97.2
2018-05-10T05:32:21.631Z,96.5
2018-05-10T05:32:41.945Z,97
2018-05-10T05:33:02.196Z,96.9
2018-05-10T05:33:22.387Z,96.7
2018-05-10T05:33:42.556Z,97
2018-05-10T05:34:02.735Z,96.6
2018-05-10T05:34:22.874Z,96.6
2018-05-10T05:34:43.040Z,96.9
2018-05-10T05:35:03.234Z,96.4
2018-05-10T05:35:23.392Z,96.5
2018-05-10T05:35:43.606Z,97.1
2018-05-10T05:36:03.773Z,97.1
2018-05-10T05:36:23.960Z,97
2018-05-10T05:36:44.175Z,96.3
2018-05-10T05:37:04.346Z,96.6
2018-05-10T05:37:24.529Z,96.7
2018-05-10T05:37:44.721Z,96.9
2018-05-10T05:38:04.913Z,97.1
2018-05-10T05:38:25.092Z,97
2018-05-10T05:38:45.251Z,97.2
2018-05-10T05:39:05.431Z,97.2
2018-05-10T05:39:25.594Z,96.8
2018-05-10T05:39:45.760Z,96.8
2018-05-10T05:40:05.950Z,96.9
2018-05-10T05:40:26.149Z,97
2018-05-10T05:40:46.326Z,97.2
2018-05-10T05:41:06.586Z,97
2018-05-10T05:41:26.729Z,96.8
2018-05-10T05:41:46.850Z,97
2018-05-10T05:42:07.015Z,97.2
2018-05-10T05:42:27.194Z,96.9
2018-05-10T05:42:47.367Z,96.9
2018-05-10T05:43:07.549Z,96.9
2018-05-10T05:43:27.944Z,97.6
2018-05-10T05:43:48.054Z,97.5
2018-05-10T05:44:08.215Z,97.8
2018-05-10T05:44:28.380Z,97.5
2018-05-10T05:44:48.542Z,97.5
2018-05-10T05:45:08.710Z,96.8
2018-05-10T05:45:28.891Z,97.1
2018-05-10T05:45:49.063Z,97.3
2018-05-10T05:46:09.267Z,96.9
2018-05-10T05:46:29.441Z,97.2
2018-05-10T05:46:49.637Z,96.8
2018-05-10T05:47:09.811Z,96.7
2018-05-10T05:47:30.019Z,96.8
2018-05-10T05:47:50.191Z,96.7
2018-05-10T05:48:10.375Z,96.6
2018-05-10T05:48:30.599Z,96.7
2018-05-10T05:48:50.791Z,96.5
2018-05-10T05:49:11.009Z,96.4
2018-05-10T05:49:31.197Z,96
2018-05-10T05:49:51.424Z,96.4
2018-05-10T05:50:11.577Z,96.2
2018-05-10T05:50:31.883Z,96.8
2018-05-10T05:50:52.091Z,96.7
2018-05-10T05:51:12.329Z,96.7
2018-05-10T05:51:32.571Z,96.8
2018-05-10T05:51:52.758Z,96.7
2018-05-10T05:52:12.903Z,96.8
2018-05-10T05:52:33.087Z,96.7
2018-05-10T05:52:53.305Z,96.9
2018-05-10T05:53:13.482Z,97.1
2018-05-10T05:53:33.655Z,96.9
2018-05-10T05:53:53.827Z,96.2
2018-05-10T05:54:14.017Z,96.8
2018-05-10T05:54:34.172Z,97
2018-05-10T05:54:54.353Z,96.7
2018-05-10T05:55:14.557Z,96.7
2018-05-10T05:55:34.737Z,96.5
2018-05-10T05:55:54.933Z,96.8
2018-05-10T05:56:15.107Z,96
2018-05-10T05:56:35.277Z,95.9
2018-05-10T05:56:55.495Z,95.8
2018-05-10T05:57:15.678Z,96
2018-05-10T05:57:35.850Z,96.1
2018-05-10T05:57:56.016Z,95.6
2018-05-10T05:58:16.195Z,95.4
2018-05-10T05:58:36.400Z,95.9
2018-05-10T05:58:56.638Z,95.9
2018-05-10T05:59:16.790Z,95.7
2018-05-10T05:59:36.959Z,95.9
2018-05-10T05:59:57.147Z,95.9
2018-05-10T06:00:17.316Z,96
2018-05-10T06:00:37.468Z,96.2
2018-05-10T06:00:57.759Z,95.7
2018-05-10T06:01:17.891Z,95.9
2018-05-10T06:01:38.066Z,96.1
2018-05-10T06:01:58.242Z,95.5
2018-05-10T06:02:18.444Z,95.7
2018-05-10T06:02:38.628Z,95.1
2018-05-10T06:02:58.797Z,95.2
2018-05-10T06:03:18.982Z,95
2018-05-10T06:03:39.172Z,95
2018-05-10T06:03:59.354Z,95.4
2018-05-10T06:04:19.552Z,95.5
2018-05-10T06:04:39.718Z,94.9
2018-05-10T06:04:59.918Z,95.1
2018-05-10T06:05:20.099Z,95
2018-05-10T06:05:40.280Z,95.1
2018-05-10T06:06:00.452Z,95.1
2018-05-10T06:06:20.626Z,94.5
2018-05-10T06:06:40.826Z,94.5
2018-05-10T06:07:01.038Z,94.9
2018-05-10T06:07:21.196Z,94.5
2018-05-10T06:07:41.397Z,94.2
2018-05-10T06:08:01.567Z,94.4
2018-05-10T06:08:21.750Z,96.1
2018-05-10T06:08:42.035Z,95.3
2018-05-10T06:09:02.128Z,94.8
2018-05-10T06:09:22.352Z,94.5
2018-05-10T06:09:42.555Z,94
2018-05-10T06:10:02.749Z,94.1
2018-05-10T06:10:22.930Z,93.9
2018-05-10T06:10:43.115Z,94
2018-05-10T06:11:03.293Z,93.6
2018-05-10T06:11:23.468Z,93.6
2018-05-10T06:11:43.692Z,93.8
2018-05-10T06:12:05.553Z,93.7
2018-05-10T06:12:26.254Z,93.7
2018-05-10T06:12:46.651Z,94.1
2018-05-10T06:13:06.864Z,93.6
2018-05-10T06:13:27.069Z,93.2
2018-05-10T06:13:47.231Z,93.2
2018-05-10T06:14:07.402Z,93.1
2018-05-10T06:14:27.580Z,93.2
2018-05-10T06:14:47.761Z,93.8
2018-05-10T06:15:07.930Z,93.7
2018-05-10T06:15:28.211Z,93.8
2018-05-10T06:15:48.399Z,93.8
2018-05-10T06:16:08.494Z,93.8
2018-05-10T06:16:28.672Z,93.8
2018-05-10T06:16:48.834Z,93.7
2018-05-10T06:17:09.011Z,93.6
2018-05-10T06:17:29.184Z,93.7
2018-05-10T06:17:49.359Z,93.7
2018-05-10T06:18:09.530Z,93.9
2018-05-10T06:18:29.697Z,93.8
2018-05-10T06:18:49.947Z,94
2018-05-10T06:19:10.139Z,93.5
2018-05-10T06:19:30.339Z,94.1
2018-05-10T06:19:50.538Z,94
2018-05-10T06:20:10.716Z,93.2
2018-05-10T06:20:30.922Z,92.6
2018-05-10T06:20:51.092Z,92.8
2018-05-10T06:21:11.277Z,92.2
2018-05-10T06:21:31.443Z,91.8
2018-05-10T06:21:51.662Z,92.6
2018-05-10T06:22:11.841Z,92.5
2018-05-10T06:22:32.024Z,92.7
2018-05-10T06:22:52.267Z,92.5
2018-05-10T06:23:12.436Z,92.9
2018-05-10T06:23:32.619Z,93
2018-05-10T06:23:52.787Z,93.1
2018-05-10T06:24:12.970Z,93.2
2018-05-10T06:24:33.142Z,92.6
2018-05-10T06:24:53.435Z,92.3
2018-05-10T06:25:13.589Z,92
2018-05-10T06:25:33.808Z,92
2018-05-10T06:25:53.951Z,92.4
2018-05-10T06:26:14.125Z,92.5
2018-05-10T06:26:34.292Z,92.2
2018-05-10T06:26:54.469Z,92.5
2018-05-10T06:27:14.634Z,91.7
2018-05-10T06:27:34.802Z,91.6
2018-05-10T06:27:54.973Z,91.5
2018-05-10T06:28:15.153Z,91.5
2018-05-10T06:28:35.329Z,91.5
2018-05-10T06:28:55.501Z,92
2018-05-10T06:29:15.675Z,92
2018-05-10T06:29:35.670Z,91.6
2018-05-10T06:29:55.855Z,91.6
2018-05-10T06:30:16.051Z,91.7
2018-05-10T06:30:36.217Z,91.1
2018-05-10T06:30:56.368Z,90.7
2018-05-10T06:31:16.545Z,91.1
2018-05-10T06:31:36.698Z,90
2018-05-10T06:31:56.878Z,89.6
2018-05-10T06:32:17.062Z,90
2018-05-10T06:32:37.227Z,90.9
2018-05-10T06:32:57.407Z,90.3
2018-05-10T06:33:17.566Z,89.8
2018-05-10T06:33:37.752Z,90.3
2018-05-10T06:33:58.173Z,89.9
2018-05-10T06:34:18.613Z,89.6
2018-05-10T06:34:39.567Z,89.8
2018-05-10T06:34:59.770Z,90.4
2018-05-10T06:35:19.971Z,89.8
2018-05-10T06:35:40.126Z,90
2018-05-10T06:36:00.624Z,90.3
2018-05-10T06:36:20.810Z,90.2
2018-05-10T06:37:01.097Z,89.8
2018-05-10T06:37:21.279Z,89.7
2018-05-10T06:37:41.465Z,89.7
2018-05-10T06:38:01.642Z,90.2
2018-05-10T06:38:21.830Z,91
2018-05-10T06:38:42.018Z,90.8
2018-05-10T06:39:02.400Z,90.1
2018-05-10T06:39:22.576Z,90.3
2018-05-10T06:39:42.726Z,90.3
2018-05-10T06:40:02.948Z,90.5
2018-05-10T06:40:23.132Z,90.5
2018-05-10T06:40:43.296Z,90.5
2018-05-10T06:41:03.480Z,90
2018-05-10T06:41:23.721Z,89.9
2018-05-10T06:41:43.836Z,90.1
2018-05-10T06:42:04.004Z,90.1
2018-05-10T06:42:24.163Z,90.2
2018-05-10T06:42:44.311Z,89.8
2018-05-10T06:43:04.510Z,90.4
2018-05-10T06:43:24.681Z,90.3
2018-05-10T06:43:44.932Z,90.1
2018-05-10T06:44:05.131Z,90.1
2018-05-10T06:44:25.325Z,90.2
2018-05-10T06:44:45.501Z,90.1
2018-05-10T06:45:05.660Z,90.5
2018-05-10T06:45:25.838Z,90.4
2018-05-10T06:45:45.966Z,90
2018-05-10T06:46:06.140Z,90.1
2018-05-10T06:46:26.318Z,90
2018-05-10T06:46:46.530Z,90.1
2018-05-10T06:47:06.737Z,89.6
2018-05-10T06:47:26.946Z,89.4
2018-05-10T06:47:47.103Z,89.2
2018-05-10T06:48:07.285Z,89.3
2018-05-10T06:48:28.174Z,88.6
2018-05-10T06:48:48.331Z,88.4
2018-05-10T06:49:08.533Z,88.7
2018-05-10T06:49:28.725Z,89.1
2018-05-10T06:49:49.029Z,89.4
2018-05-10T06:50:09.285Z,89.5
2018-05-10T06:50:29.724Z,89.5
2018-05-10T06:50:50.063Z,89.3
2018-05-10T06:51:10.270Z,88.9
2018-05-10T06:51:30.485Z,88.3
2018-05-10T06:51:50.705Z,88.8
2018-05-10T06:52:10.900Z,88.6
2018-05-10T06:52:31.063Z,88.3
2018-05-10T06:52:51.295Z,88.8
2018-05-10T06:53:11.425Z,88.3
2018-05-10T06:53:32.165Z,88.7
2018-05-10T06:53:52.369Z,88.3
2018-05-10T06:54:12.591Z,88.4
2018-05-10T06:54:32.794Z,89.1
2018-05-10T06:54:53.156Z,89.1
2018-05-10T06:55:13.391Z,89.1
2018-05-10T06:55:33.582Z,89.4
2018-05-10T06:55:54.497Z,89
2018-05-10T06:56:14.706Z,88.9
2018-05-10T06:56:34.892Z,89.1
2018-05-10T06:56:55.131Z,89.4
2018-05-10T06:57:15.297Z,89.4
2018-05-10T06:57:35.496Z,89.6
2018-05-10T06:57:55.643Z,90.1
2018-05-10T06:58:15.864Z,90.1
2018-05-10T06:58:36.043Z,90.3
2018-05-10T06:58:56.222Z,89.3
2018-05-10T06:59:16.417Z,88.8
2018-05-10T06:59:36.588Z,88.7
2018-05-10T06:59:56.759Z,88.1
2018-05-10T07:00:16.912Z,88
2018-05-10T07:00:37.096Z,88.1
2018-05-10T07:00:58.049Z,87.9
2018-05-10T07:01:18.233Z,88.1
2018-05-10T07:01:39.155Z,88.2
2018-05-10T07:01:59.413Z,88.1
2018-05-10T07:02:19.634Z,87.3
2018-05-10T07:02:39.845Z,87.4
2018-05-10T07:03:00.037Z,87.9
2018-05-10T07:03:20.295Z,87.7
2018-05-10T07:03:40.376Z,87.6
2018-05-10T07:04:00.545Z,87.6
2018-05-10T07:04:20.716Z,87.2
2018-05-10T07:04:40.930Z,87.8
2018-05-10T07:05:01.193Z,87.3
2018-05-10T07:05:21.334Z,88.1
2018-05-10T07:05:41.523Z,88.5
2018-05-10T07:06:01.701Z,88.5
2018-05-10T07:06:21.876Z,88.8
2018-05-10T07:06:42.096Z,88
2018-05-10T07:07:02.361Z,88.9
2018-05-10T07:07:22.593Z,87.9
2018-05-10T07:07:42.795Z,88.8
2018-05-10T07:08:02.976Z,89.6
2018-05-10T07:08:23.167Z,89.4
2018-05-10T07:08:43.366Z,89.3
2018-05-10T07:09:03.510Z,89
2018-05-10T07:09:23.815Z,89
2018-05-10T07:09:44.081Z,89.1
2018-05-10T07:10:04.148Z,89
2018-05-10T07:10:24.447Z,88.9
2018-05-10T07:10:44.767Z,88.2
2018-05-10T07:11:05.649Z,88.4
2018-05-10T07:11:25.843Z,87.6
2018-05-10T07:11:46.107Z,87.6
2018-05-10T07:12:06.971Z,87.7
2018-05-10T07:12:27.005Z,86.9
2018-05-10T07:12:47.234Z,87.1
2018-05-10T07:13:07.447Z,87.5
2018-05-10T07:13:27.517Z,88
2018-05-10T07:13:47.763Z,87.6
2018-05-10T07:14:07.935Z,87.7
2018-05-10T07:14:27.965Z,87.2
2018-05-10T07:14:48.193Z,87.7
2018-05-10T07:15:08.355Z,88
2018-05-10T07:15:28.600Z,88
2018-05-10T07:15:48.773Z,87.4
2018-05-10T07:16:09.046Z,87.3
2018-05-10T07:16:29.237Z,86.9
2018-05-10T07:16:49.408Z,87.1
2018-05-10T07:17:09.588Z,87.1
2018-05-10T07:17:29.824Z,88.1
2018-05-10T07:17:49.953Z,87.8
2018-05-10T07:18:10.141Z,88.1
2018-05-10T07:18:30.385Z,87.9
2018-05-10T07:18:50.636Z,87.9
2018-05-10T07:19:10.907Z,88.8
2018-05-10T07:19:31.294Z,89.2
2018-05-10T07:19:51.505Z,88.5
2018-05-10T07:20:11.879Z,88.1
2018-05-10T07:20:32.065Z,88
2018-05-10T07:20:52.307Z,88.3
2018-05-10T07:21:13.193Z,88.3
2018-05-10T07:21:33.391Z,88.5
2018-05-10T07:21:53.561Z,88
2018-05-10T07:22:13.740Z,87.7
2018-05-10T07:22:33.958Z,88.3
2018-05-10T07:22:54.141Z,89
2018-05-10T07:23:14.300Z,89.3
2018-05-10T07:23:34.471Z,89.3
2018-05-10T07:23:54.658Z,89.3
2018-05-10T07:24:14.637Z,88.8
2018-05-10T07:24:34.831Z,88.6
2018-05-10T07:24:55.054Z,88.8
2018-05-10T07:25:15.320Z,88
2018-05-10T07:25:35.480Z,88.3
2018-05-10T07:25:55.752Z,88.7
2018-05-10T07:26:15.930Z,88.4
2018-05-10T07:26:36.116Z,88.9
2018-05-10T07:26:56.389Z,88.8
2018-05-10T07:27:16.534Z,87.8
2018-05-10T07:27:36.701Z,89
2018-05-10T07:27:56.884Z,87.5
2018-05-10T07:28:17.053Z,86
2018-05-10T07:28:37.225Z,86.3
2018-05-10T07:28:57.418Z,86.1
2018-05-10T07:29:17.590Z,86.5
2018-05-10T07:29:37.747Z,86.3
2018-05-10T07:29:57.898Z,86.4
2018-05-10T07:30:18.106Z,87.8
2018-05-10T07:30:38.278Z,87.9
2018-05-10T07:30:58.489Z,86.7
2018-05-10T07:31:18.678Z,86.1
2018-05-10T07:31:39.006Z,86.3
2018-05-10T07:31:59.246Z,86.8
2018-05-10T07:32:19.604Z,86.6
2018-05-10T07:32:39.790Z,86.9
2018-05-10T07:33:00.071Z,86.2
2018-05-10T07:33:20.222Z,86.3
2018-05-10T07:33:40.659Z,87
2018-05-10T07:34:00.913Z,86.7
2018-05-10T07:34:21.143Z,86.1
2018-05-10T07:34:41.358Z,86.3
2018-05-10T07:35:01.619Z,86
2018-05-10T07:35:21.814Z,86.4
2018-05-10T07:35:42.034Z,85.8
2018-05-10T07:36:02.225Z,86.3
2018-05-10T07:36:22.383Z,86.6
2018-05-10T07:36:42.626Z,86.3
2018-05-10T07:37:02.955Z,86.4
2018-05-10T07:37:23.235Z,86.8
2018-05-10T07:37:43.480Z,87.5
2018-05-10T07:38:03.726Z,86.8
2018-05-10T07:38:23.728Z,87.6
2018-05-10T07:38:43.994Z,87.2
2018-05-10T07:39:04.205Z,87.1
2018-05-10T07:39:24.399Z,86.7
2018-05-10T07:39:44.619Z,86.8
2018-05-10T07:40:04.810Z,87.3
2018-05-10T07:40:25.058Z,87.3
2018-05-10T07:40:45.252Z,87.1
2018-05-10T07:41:05.441Z,87.2
2018-05-10T07:41:25.659Z,86.9
2018-05-10T07:41:45.826Z,86.4
2018-05-10T07:42:06.063Z,86.7
2018-05-10T07:42:26.230Z,86.5
2018-05-10T07:42:46.256Z,86.6
2018-05-10T07:43:06.516Z,86.3
2018-05-10T07:43:26.841Z,86.1
2018-05-10T07:43:47.113Z,85.8
2018-05-10T07:44:07.270Z,86
2018-05-10T07:44:27.527Z,86.3
2018-05-10T07:44:47.784Z,86
2018-05-10T07:45:07.988Z,86.8
2018-05-10T07:45:28.210Z,87.6
2018-05-10T07:45:48.538Z,86.7
2018-05-10T07:46:08.730Z,85.9
2018-05-10T07:46:28.992Z,84.6
2018-05-10T07:46:49.199Z,85
2018-05-10T07:47:09.376Z,85.5
2018-05-10T07:47:29.578Z,85.8
2018-05-10T07:47:49.901Z,85.8
2018-05-10T07:48:10.045Z,85.1
2018-05-10T07:48:30.239Z,86
2018-05-10T07:48:50.444Z,86.4
2018-05-10T07:49:11.680Z,85.8
2018-05-10T07:49:32.068Z,85
2018-05-10T07:49:52.520Z,85.5
2018-05-10T07:50:12.778Z,85.2
2018-05-10T07:50:33.257Z,86.4
2018-05-10T07:50:53.482Z,86.8
2018-05-10T07:51:13.686Z,86
2018-05-10T07:51:33.980Z,86.5
2018-05-10T07:51:54.351Z,86.6
2018-05-10T07:52:14.947Z,86.2
2018-05-10T07:52:35.187Z,85.7
2018-05-10T07:52:55.539Z,86.4
2018-05-10T07:53:15.874Z,86.3
2018-05-10T07:53:36.043Z,86.2
2018-05-10T07:53:56.282Z,86.2
2018-05-10T07:54:16.472Z,86.3
2018-05-10T07:54:36.741Z,86.9
2018-05-10T07:54:57.710Z,87
2018-05-10T07:55:17.934Z,86.2
2018-05-10T07:55:37.930Z,86
2018-05-10T07:55:58.082Z,86.3
2018-05-10T07:56:19.219Z,86.1
2018-05-10T07:56:39.417Z,87.1
2018-05-10T07:56:59.447Z,86.6
2018-05-10T07:57:19.660Z,85.5
2018-05-10T07:57:39.872Z,85.3
2018-05-10T07:58:00.113Z,85.4
2018-05-10T07:58:20.434Z,85.4
2018-05-10T07:58:40.619Z,85.9
2018-05-10T07:59:00.894Z,86.1
2018-05-10T07:59:21.219Z,85.4
2018-05-10T07:59:42.338Z,85
2018-05-10T08:00:02.791Z,84.7
2018-05-10T08:00:23.049Z,84.2
2018-05-10T08:00:43.347Z,84.6
2018-05-10T08:01:03.666Z,83.7
2018-05-10T08:01:24.038Z,83.8
2018-05-10T08:01:44.247Z,83.9
2018-05-10T08:02:04.528Z,84.1
2018-05-10T08:02:25.019Z,83.9
2018-05-10T08:02:45.337Z,83.7
2018-05-10T08:03:05.721Z,83.7
2018-05-10T08:03:26.147Z,83.4
2018-05-10T08:03:46.425Z,83.9
2018-05-10T08:04:06.561Z,83.5
2018-05-10T08:04:26.793Z,83.6
2018-05-10T08:04:47.208Z,84.3
2018-05-10T08:05:07.402Z,83.5
2018-05-10T08:05:27.748Z,82.5
2018-05-10T08:05:48.012Z,83.2
2018-05-10T08:06:08.255Z,82.4
2018-05-10T08:06:28.269Z,81.9
2018-05-10T08:06:48.556Z,81.8
2018-05-10T08:07:08.974Z,82.8
2018-05-10T08:07:29.337Z,82.5
2018-05-10T08:07:49.634Z,81.9
2018-05-10T08:08:09.864Z,81.8
2018-05-10T08:08:30.195Z,81.7
2018-05-10T08:08:50.496Z,81.8
2018-05-10T08:09:10.813Z,81.8
2018-05-10T08:09:31.099Z,81.8
2018-05-10T08:09:51.415Z,81.6
2018-05-10T08:10:11.794Z,81.9
2018-05-10T08:10:32.021Z,82.1
2018-05-10T08:10:52.284Z,82.4
2018-05-10T08:11:12.589Z,83.6
2018-05-10T08:11:32.865Z,83.4
2018-05-10T08:11:53.171Z,83.6
2018-05-10T08:12:13.334Z,83.4
2018-05-10T08:12:33.542Z,82.9
2018-05-10T08:12:53.754Z,83.1
2018-05-10T08:13:13.989Z,82.3
2018-05-10T08:13:34.414Z,81.6
2018-05-10T08:13:54.711Z,82
2018-05-10T08:14:14.968Z,81.8
2018-05-10T08:14:35.252Z,82.7
2018-05-10T08:14:55.544Z,82.8
2018-05-10T08:15:15.888Z,82.4
2018-05-10T08:15:36.345Z,81.8
2018-05-10T08:15:57.243Z,81.9
2018-05-10T08:16:17.552Z,81.4
2018-05-10T08:16:37.797Z,82
2018-05-10T08:16:58.176Z,81.4
2018-05-10T08:17:18.368Z,81.6
2018-05-10T08:17:38.549Z,81.8
2018-05-10T08:17:58.758Z,81.3
2018-05-10T08:18:18.975Z,81.9
2018-05-10T08:18:39.210Z,82.1
2018-05-10T08:18:59.528Z,82
2018-05-10T08:19:19.873Z,81.8
2018-05-10T08:19:40.336Z,81.3
2018-05-10T08:20:00.684Z,81.7
2018-05-10T08:20:21.754Z,81.2
2018-05-10T08:20:42.185Z,81.2
2018-05-10T08:21:02.587Z,81.7
2018-05-10T08:21:22.992Z,82
2018-05-10T08:21:43.309Z,80.8
2018-05-10T08:22:03.659Z,80.8
2018-05-10T08:22:24.822Z,81
2018-05-10T08:22:45.246Z,80.5
2018-05-10T08:23:05.701Z,80.7
2018-05-10T08:23:26.044Z,81.3
2018-05-10T08:23:46.432Z,80.9
2018-05-10T08:24:06.735Z,80.2
2018-05-10T08:24:27.137Z,80.2
2018-05-10T08:24:47.400Z,80.4
2018-05-10T08:25:07.672Z,80.4
2018-05-10T08:25:27.996Z,80.1
2018-05-10T08:25:48.256Z,80.9
2018-05-10T08:26:08.396Z,82.2
2018-05-10T08:26:28.688Z,81.5
2018-05-10T08:26:49.030Z,81.9
2018-05-10T08:27:09.232Z,81.5
2018-05-10T08:27:29.412Z,82
2018-05-10T08:27:49.610Z,81.3
2018-05-10T08:28:09.959Z,81.5
2018-05-10T08:28:30.317Z,81.5
2018-05-10T08:28:50.583Z,80.8
2018-05-10T08:29:10.873Z,80.7
2018-05-10T08:29:31.292Z,80.1
2018-05-10T08:29:51.632Z,80.6
2018-05-10T08:30:11.736Z,80.3
2018-05-10T08:30:32.150Z,80.6
2018-05-10T08:30:52.751Z,80.7
2018-05-10T08:31:13.378Z,79
2018-05-10T08:31:33.707Z,77.7
2018-05-10T08:31:54.099Z,78.4
2018-05-10T08:32:14.477Z,78.9
2018-05-10T08:32:34.833Z,78.8
2018-05-10T08:32:55.204Z,78.4
2018-05-10T08:33:15.453Z,78.7
2018-05-10T08:33:35.765Z,78.4
2018-05-10T08:33:56.184Z,77.8
2018-05-10T08:34:16.598Z,78.6
2018-05-10T08:34:36.862Z,78.6
2018-05-10T08:34:57.073Z,77.9
2018-05-10T08:35:17.325Z,78
2018-05-10T08:35:37.598Z,78.2
2018-05-10T08:35:57.930Z,77.9
2018-05-10T08:36:18.197Z,79.6
2018-05-10T08:36:38.515Z,79.8
2018-05-10T08:36:58.795Z,79.7
2018-05-10T08:37:19.021Z,80.4
2018-05-10T08:37:39.314Z,80.2
2018-05-10T08:37:59.698Z,78.3
2018-05-10T08:38:19.924Z,78.6
2018-05-10T08:38:40.139Z,78.8
2018-05-10T08:39:00.333Z,79.5
2018-05-10T08:39:20.515Z,80.5
2018-05-10T08:39:40.724Z,80.6
2018-05-10T08:40:00.925Z,79.1
2018-05-10T08:40:21.184Z,78.4
2018-05-10T08:40:41.418Z,78.1
2018-05-10T08:41:01.567Z,78.7
2018-05-10T08:41:21.778Z,78.9
2018-05-10T08:41:41.994Z,79.4
2018-05-10T08:42:02.169Z,80
2018-05-10T08:42:22.361Z,79.5
2018-05-10T08:42:42.598Z,80.7
2018-05-10T08:43:02.831Z,82.1
2018-05-10T08:43:23.156Z,81.5
2018-05-10T08:43:43.386Z,81.5
2018-05-10T08:44:03.661Z,81.5
2018-05-10T08:44:23.933Z,81.6
2018-05-10T08:44:44.147Z,81.9
2018-05-10T08:45:04.440Z,81.5
2018-05-10T08:45:24.815Z,80.9
2018-05-10T08:45:45.074Z,80.6
2018-05-10T08:46:05.241Z,80.3
2018-05-10T08:46:25.547Z,80
2018-05-10T08:46:45.759Z,80.3
2018-05-10T08:47:06.120Z,79.6
2018-05-10T08:47:26.519Z,79.8
2018-05-10T08:47:46.862Z,79.9
2018-05-10T08:48:07.059Z,81.4
2018-05-10T08:48:27.291Z,80.6
2018-05-10T08:48:47.506Z,80.7
2018-05-10T08:49:07.545Z,80.4
2018-05-10T08:49:27.873Z,80.2
2018-05-10T08:49:48.213Z,77.6
2018-05-10T08:50:08.462Z,78.4
2018-05-10T08:50:28.817Z,77.7
2018-05-10T08:50:49.094Z,78.8
2018-05-10T08:51:09.364Z,78.7
2018-05-10T08:51:29.767Z,77.9
2018-05-10T08:51:49.960Z,80
2018-05-10T08:52:10.125Z,79.8
2018-05-10T08:52:30.422Z,79
2018-05-10T08:52:51.056Z,78.1
2018-05-10T08:53:11.889Z,76.3
2018-05-10T08:53:32.112Z,75.3
2018-05-10T08:53:52.383Z,75.1
2018-05-10T08:54:12.605Z,76.8
2018-05-10T08:54:32.963Z,77.4
2018-05-10T08:54:53.210Z,77.2
2018-05-10T08:55:13.509Z,77.5
2018-05-10T08:55:33.878Z,76.5
2018-05-10T08:55:54.069Z,78
2018-05-10T08:56:14.325Z,79.1
2018-05-10T08:56:34.547Z,78.1
2018-05-10T08:56:54.878Z,78
2018-05-10T08:57:15.272Z,76.5
2018-05-10T08:57:35.859Z,76.4
2018-05-10T08:57:56.148Z,76.7
2018-05-10T08:58:16.434Z,78.1
2018-05-10T08:58:36.752Z,77.9
2018-05-10T08:58:57.141Z,77.6
2018-05-10T08:59:17.546Z,77.3
2018-05-10T08:59:37.970Z,77.4
2018-05-10T08:59:58.263Z,77.1
2018-05-10T09:00:18.567Z,76.6
2018-05-10T09:00:38.857Z,76.6
2018-05-10T09:00:58.812Z,75.6
2018-05-10T09:01:19.070Z,73.1
2018-05-10T09:01:39.398Z,73.7
2018-05-10T09:01:59.707Z,73.7
2018-05-10T09:02:20.150Z,73.9
2018-05-10T09:02:40.456Z,74.2
2018-05-10T09:03:00.895Z,74.2
2018-05-10T09:03:21.431Z,75.1
2018-05-10T09:03:41.860Z,74.8
2018-05-10T09:04:03.302Z,74.1
2018-05-10T09:04:23.864Z,74.2
2018-05-10T09:04:44.254Z,74.1
2018-05-10T09:05:04.638Z,74.2
2018-05-10T09:05:25.095Z,73.7
2018-05-10T09:05:45.116Z,74.3
2018-05-10T09:06:05.512Z,74.4
2018-05-10T09:06:26.143Z,74.1
2018-05-10T09:06:46.549Z,74.3
2018-05-10T09:07:07.157Z,73.3
2018-05-10T09:07:27.852Z,72.9
2018-05-10T09:07:48.220Z,72.7
2018-05-10T09:08:08.856Z,73.3
2018-05-10T09:08:29.931Z,73.6
2018-05-10T09:08:50.314Z,73.2
2018-05-10T09:09:10.727Z,72.6
2018-05-10T09:09:31.280Z,72
2018-05-10T09:09:52.323Z,72.2
2018-05-10T09:10:13.020Z,71.9
2018-05-10T09:10:33.577Z,71.8
2018-05-10T09:10:54.116Z,71.7
2018-05-10T09:11:14.578Z,71.2
2018-05-10T09:11:35.065Z,71.8
2018-05-10T09:11:55.528Z,72
2018-05-10T09:12:15.995Z,71.4
2018-05-10T09:12:36.378Z,70.6
2018-05-10T09:12:56.730Z,70.7
2018-05-10T09:13:17.353Z,70
2018-05-10T09:13:39.304Z,70.2
2018-05-10T09:13:59.750Z,70
2018-05-10T09:14:20.244Z,69.4
2018-05-10T09:14:40.663Z,69.3